Time;durP1;ratioP1;P1;durP2;ratioP2;P2;SDS_P1;SDS_P2;PMS_P1;PMS_P2;Temp;Humidity;BMP_temperature;BMP_pressure;BME280_temperature;BME280_humidity;BME280_pressure;Samples;Min_cycle;Max_cycle;Signal;HPM_P1;HPM_P2
2022/04/18 00:02:04;;;;;;;7.70;6.00;;;15.60;59.80;;;;;;5069007;28;20396;-78
2022/04/18 00:04:30;;;;;;;7.45;5.47;;;15.60;59.10;;;;;;5044410;28;20031;-79
2022/04/18 00:06:55;;;;;;;7.95;5.88;;;15.50;59.10;;;;;;5047465;28;20404;-78
2022/04/18 00:09:21;;;;;;;8.18;6.35;;;15.50;59.10;;;;;;5069709;28;20029;-79
2022/04/18 00:11:47;;;;;;;9.05;6.15;;;15.40;59.10;;;;;;5053456;28;20029;-80
2022/04/18 00:14:13;;;;;;;9.02;6.53;;;15.40;59.10;;;;;;5022279;28;20049;-78
2022/04/18 00:16:39;;;;;;;7.38;5.78;;;15.40;59.10;;;;;;5040761;28;20118;-79
2022/04/18 00:19:05;;;;;;;9.00;6.15;;;15.30;59.10;;;;;;5052966;28;20070;-79
2022/04/18 00:21:31;;;;;;;9.07;6.03;;;15.30;59.20;;;;;;5052069;28;20792;-79
2022/04/18 00:23:57;;;;;;;7.53;5.93;;;15.20;59.20;;;;;;5053133;28;20036;-79
2022/04/18 00:26:23;;;;;;;8.43;6.15;;;15.20;59.20;;;;;;5034149;28;20033;-78
2022/04/18 00:28:49;;;;;;;8.95;6.38;;;15.20;59.30;;;;;;5037199;28;20052;-79
2022/04/18 00:31:14;;;;;;;8.43;6.65;;;15.20;59.40;;;;;;5062272;28;20024;-79
2022/04/18 00:33:40;;;;;;;8.57;6.68;;;15.10;60.00;;;;;;5041854;28;20031;-79
2022/04/18 00:36:06;;;;;;;7.55;6.13;;;15.00;59.30;;;;;;5030846;28;20412;-80
2022/04/18 00:38:32;;;;;;;8.50;5.80;;;15.00;59.40;;;;;;5034267;28;20033;-79
2022/04/18 00:40:58;;;;;;;8.27;6.32;;;15.00;59.50;;;;;;5053038;28;20069;-78
2022/04/18 00:43:41;;;;;;;8.02;6.18;;;14.90;59.50;;;;;;5047831;28;20035;-79
2022/04/18 00:46:08;;;;;;;7.80;6.10;;;14.90;59.60;;;;;;5040260;28;20034;-80
2022/04/18 00:48:34;;;;;;;8.18;6.05;;;14.90;59.60;;;;;;5089334;28;20491;-80
2022/04/18 00:51:01;;;;;;;7.75;5.78;;;14.80;59.60;;;;;;5020930;28;20568;-79
2022/04/18 00:53:28;;;;;;;7.72;5.93;;;14.80;59.80;;;;;;5070287;28;20072;-79
2022/04/18 00:55:54;;;;;;;7.85;5.90;;;14.80;59.80;;;;;;5043409;28;20028;-79
2022/04/18 00:58:20;;;;;;;7.20;5.65;;;14.70;59.80;;;;;;5047404;28;20076;-79
2022/04/18 01:00:46;;;;;;;8.25;6.25;;;14.70;59.90;;;;;;5046917;28;20044;-79
2022/04/18 01:03:12;;;;;;;7.72;6.07;;;14.70;59.90;;;;;;5073022;28;20041;-78
2022/04/18 01:05:38;;;;;;;7.93;5.80;;;14.60;59.90;;;;;;5052203;28;20031;-78
2022/04/18 01:08:07;;;;;;;7.35;5.53;;;14.60;59.90;;;;;;5035049;28;20089;-79
2022/04/18 01:10:32;;;;;;;7.20;5.60;;;14.60;60.00;;;;;;5067372;28;20036;-80
2022/04/18 01:12:58;;;;;;;7.55;6.03;;;14.50;60.00;;;;;;5035207;28;20043;-80
2022/04/18 01:15:46;;;;;;;7.38;5.70;;;14.50;60.00;;;;;;5071645;28;20136;-80
2022/04/18 01:18:29;;;;;;;8.07;6.03;;;14.50;60.10;;;;;;5038746;28;20044;-79
2022/04/18 01:21:20;;;;;;;7.10;5.65;;;14.40;60.10;;;;;;5060215;28;20037;-79
2022/04/18 01:29:57;;;;;;;7.07;5.68;;;14.30;60.30;;;;;;5043824;28;20068;-78
2022/04/18 01:32:23;;;;;;;7.22;5.80;;;14.20;60.30;;;;;;5040605;28;20060;-78
2022/04/18 01:34:49;;;;;;;8.15;6.18;;;14.20;60.40;;;;;;5059814;28;20074;-79
2022/04/18 01:37:15;;;;;;;7.95;6.32;;;14.20;60.40;;;;;;5035420;28;20102;-80
2022/04/18 01:39:41;;;;;;;7.60;6.20;;;14.20;60.40;;;;;;5034124;28;20473;-79
2022/04/18 01:42:07;;;;;;;7.53;5.82;;;14.10;60.40;;;;;;5041292;28;20060;-79
2022/04/18 01:44:32;;;;;;;7.70;5.88;;;14.10;60.50;;;;;;5054164;28;20094;-78
2022/04/18 01:46:58;;;;;;;7.50;6.00;;;14.00;60.50;;;;;;5034232;28;20052;-79
2022/04/18 01:49:25;;;;;;;7.78;5.93;;;14.00;60.50;;;;;;5049322;28;20598;-80
2022/04/18 01:51:50;;;;;;;8.20;6.13;;;14.00;60.50;;;;;;5055486;28;20028;-79
2022/04/18 01:54:17;;;;;;;8.00;6.40;;;13.90;60.50;;;;;;5052234;28;20021;-80
2022/04/18 01:56:43;;;;;;;8.38;5.85;;;13.90;60.60;;;;;;5034830;28;20040;-80
2022/04/18 01:59:09;;;;;;;7.97;6.25;;;13.80;60.50;;;;;;5038977;28;20459;-80
2022/04/18 02:01:35;;;;;;;7.25;6.00;;;13.80;60.60;;;;;;5052113;28;20537;-79
2022/04/18 02:04:01;;;;;;;7.78;6.20;;;13.80;60.60;;;;;;5071139;28;20041;-81
2022/04/18 02:06:27;;;;;;;7.22;5.90;;;13.80;60.70;;;;;;5040848;28;20436;-79
2022/04/18 02:08:53;;;;;;;7.82;5.82;;;13.70;60.70;;;;;;5051390;28;20446;-79
2022/04/18 02:11:22;;;;;;;7.95;6.40;;;13.70;60.70;;;;;;5055802;28;20032;-79
2022/04/18 02:13:48;;;;;;;7.97;6.47;;;13.60;60.60;;;;;;5053063;28;20039;-78
2022/04/18 02:16:14;;;;;;;8.75;6.13;;;13.60;60.70;;;;;;5054242;28;20413;-78
2022/04/18 02:18:44;;;;;;;7.47;6.05;;;13.60;60.70;;;;;;5056640;28;20388;-79
2022/04/18 02:21:12;;;;;;;7.07;5.78;;;13.60;60.80;;;;;;5039432;28;20032;-79
2022/04/18 02:23:39;;;;;;;8.13;6.28;;;13.50;60.80;;;;;;5039231;28;20115;-80
2022/04/18 02:26:05;;;;;;;8.50;6.80;;;13.50;60.70;;;;;;5073859;28;20024;-79
2022/04/18 02:28:31;;;;;;;8.15;6.18;;;13.40;60.60;;;;;;5037721;28;20507;-79
2022/04/18 02:31:01;;;;;;;8.10;6.25;;;13.40;60.70;;;;;;5057235;28;20466;-79
2022/04/18 02:33:28;;;;;;;9.30;6.63;;;13.40;60.70;;;;;;5041917;28;20037;-79
2022/04/18 02:35:54;;;;;;;8.30;6.60;;;13.30;60.60;;;;;;5036515;28;20373;-80
2022/04/18 02:38:22;;;;;;;8.27;6.80;;;13.30;60.70;;;;;;5054600;28;20030;-79
2022/04/18 02:40:48;;;;;;;7.63;5.75;;;13.30;60.70;;;;;;5054448;28;20033;-79
2022/04/18 02:43:14;;;;;;;7.93;6.00;;;13.20;60.70;;;;;;5054967;28;20032;-79
2022/04/18 02:45:45;;;;;;;7.35;5.57;;;13.20;60.70;;;;;;5048963;28;20098;-80
2022/04/18 02:48:31;;;;;;;9.65;6.32;;;13.20;60.70;;;;;;5038637;28;20119;-79
2022/04/18 02:50:59;;;;;;;7.60;6.15;;;13.10;60.70;;;;;;5043495;28;20103;-79
2022/04/18 02:53:27;;;;;;;7.57;5.78;;;13.10;60.70;;;;;;5055274;28;20029;-79
2022/04/18 02:56:00;;;;;;;8.05;6.20;;;13.00;60.70;;;;;;5085208;28;20115;-79
2022/04/18 02:58:26;;;;;;;9.20;6.55;;;13.00;60.60;;;;;;5013878;28;20163;-79
2022/04/18 03:00:53;;;;;;;6.85;5.75;;;12.90;60.70;;;;;;5047037;28;20036;-79
2022/04/18 03:03:19;;;;;;;8.15;6.00;;;12.90;60.70;;;;;;5034122;28;20024;-79
2022/04/18 03:05:45;;;;;;;7.00;5.93;;;12.90;60.80;;;;;;5069714;28;20033;-79
2022/04/18 03:08:11;;;;;;;6.95;5.35;;;12.80;60.70;;;;;;5038132;28;20039;-79
2022/04/18 03:13:27;;;;;;;6.75;5.45;;;12.80;60.90;;;;;;5046150;28;20035;-78
2022/04/18 03:15:53;;;;;;;7.55;5.90;;;12.70;60.80;;;;;;5051673;28;20106;-78
2022/04/18 03:18:18;;;;;;;7.93;5.80;;;12.70;60.90;;;;;;5038830;28;20427;-79
2022/04/18 03:20:44;;;;;;;8.32;5.97;;;12.60;60.90;;;;;;5050330;28;20051;-78
2022/04/18 03:23:11;;;;;;;7.28;5.53;;;12.60;60.90;;;;;;5035779;28;20032;-78
2022/04/18 03:26:03;;;;;;;7.65;5.65;;;12.60;60.80;;;;;;5018406;28;20409;-79
2022/04/18 03:28:40;;;;;;;7.82;5.90;;;12.60;60.80;;;;;;5040794;28;20082;-79
2022/04/18 03:31:05;;;;;;;7.40;5.50;;;12.50;60.80;;;;;;5042098;28;20032;-79
2022/04/18 03:33:31;;;;;;;7.50;6.13;;;12.40;60.80;;;;;;5056097;28;20045;-79
2022/04/18 03:41:27;;;;;;;6.55;5.55;;;12.30;60.70;;;;;;5053214;28;20217;-80
2022/04/18 03:43:53;;;;;;;6.78;5.35;;;12.30;60.80;;;;;;5035153;28;20405;-78
2022/04/18 03:46:19;;;;;;;7.57;5.65;;;12.30;60.80;;;;;;5036369;28;20033;-79
2022/04/18 03:48:44;;;;;;;7.18;5.18;;;12.20;60.80;;;;;;5037142;28;20031;-78
2022/04/18 03:51:10;;;;;;;6.68;5.45;;;12.20;60.80;;;;;;5054655;28;20028;-77
2022/04/18 03:53:36;;;;;;;8.02;5.68;;;12.20;60.90;;;;;;5036108;28;20032;-79
2022/04/18 03:56:02;;;;;;;7.55;6.05;;;12.10;60.80;;;;;;5036091;28;20631;-79
2022/04/18 03:58:48;;;;;;;7.45;5.32;;;12.10;60.80;;;;;;5051654;28;20033;-79
2022/04/18 04:01:15;;;;;;;7.05;5.65;;;12.10;60.80;;;;;;5026706;28;20035;-79
2022/04/18 04:03:41;;;;;;;6.88;5.47;;;12.00;60.80;;;;;;5057619;28;20108;-80
2022/04/18 04:06:08;;;;;;;7.30;5.63;;;12.00;60.90;;;;;;5025163;28;20037;-79
2022/04/18 04:08:34;;;;;;;7.90;6.57;;;11.90;60.80;;;;;;5042200;28;20121;-79
2022/04/18 04:11:04;;;;;;;7.40;5.85;;;12.00;60.90;;;;;;5044748;28;20025;-79
2022/04/18 04:13:32;;;;;;;6.90;5.63;;;11.90;60.80;;;;;;5054739;28;20043;-79
2022/04/18 04:16:27;;;;;;;6.32;5.43;;;11.90;60.90;;;;;;5036853;28;20045;-79
2022/04/18 04:18:56;;;;;;;7.10;5.60;;;11.80;60.80;;;;;;5042969;28;20029;-80
2022/04/18 04:21:22;;;;;;;7.47;5.68;;;11.80;60.90;;;;;;5059979;28;20020;-79
2022/04/18 04:23:49;;;;;;;8.25;5.63;;;11.80;60.90;;;;;;5036061;28;20036;-79
2022/04/18 04:26:27;;;;;;;6.80;5.72;;;11.70;60.90;;;;;;5051599;28;20033;-79
2022/04/18 04:28:54;;;;;;;7.35;5.78;;;11.70;60.90;;;;;;5070527;28;20047;-79
2022/04/18 04:31:25;;;;;;;6.45;5.63;;;11.60;60.90;;;;;;5021256;28;20078;-79
2022/04/18 04:33:51;;;;;;;8.18;6.15;;;11.60;60.90;;;;;;5046388;28;20044;-79
2022/04/18 04:36:17;;;;;;;8.27;6.10;;;11.60;60.90;;;;;;5048895;28;20025;-78
2022/04/18 04:38:44;;;;;;;7.30;5.45;;;11.60;61.00;;;;;;5037631;28;20380;-79
2022/04/18 04:41:16;;;;;;;7.30;5.70;;;11.50;61.00;;;;;;5048807;28;20120;-79
2022/04/18 04:43:50;;;;;;;6.97;5.57;;;11.50;61.00;;;;;;5063311;28;20036;-79
2022/04/18 04:46:21;;;;;;;8.60;5.95;;;11.50;61.00;;;;;;5039900;28;20295;-79
2022/04/18 04:48:57;;;;;;;7.22;5.22;;;11.50;61.10;;;;;;5039366;28;20111;-79
2022/04/18 04:51:23;;;;;;;7.50;5.57;;;11.40;61.00;;;;;;5045517;28;20446;-79
2022/04/18 04:53:50;;;;;;;7.40;6.13;;;11.40;61.10;;;;;;5035202;28;20461;-80
2022/04/18 04:56:28;;;;;;;7.65;5.97;;;11.30;61.10;;;;;;5065663;28;20094;-79
2022/04/18 04:58:55;;;;;;;7.22;5.88;;;11.40;61.20;;;;;;5053535;28;20036;-80
2022/04/18 05:01:22;;;;;;;7.65;5.60;;;11.30;61.10;;;;;;5054039;28;20389;-80
2022/04/18 05:03:53;;;;;;;8.05;6.07;;;11.30;61.20;;;;;;5069205;28;20802;-80
2022/04/18 05:06:19;;;;;;;8.40;6.18;;;11.30;61.20;;;;;;5050721;28;20039;-80
2022/04/18 05:08:46;;;;;;;7.93;5.85;;;11.20;61.20;;;;;;5041102;28;20607;-79
2022/04/18 05:11:14;;;;;;;6.93;5.70;;;11.20;61.20;;;;;;5057682;28;20419;-79
2022/04/18 05:13:57;;;;;;;7.40;5.80;;;11.20;61.20;;;;;;5046667;28;20032;-79
2022/04/18 05:17:02;;;;;;;7.47;5.75;;;11.20;61.30;;;;;;5016562;28;20522;-78
2022/04/18 05:19:34;;;;;;;7.40;5.63;;;11.20;61.30;;;;;;5009049;28;20149;-78
2022/04/18 05:22:17;;;;;;;7.55;5.93;;;11.10;61.30;;;;;;5014393;28;20493;-78
2022/04/18 05:24:44;;;;;;;7.55;5.63;;;11.10;61.40;;;;;;5030842;28;20029;-79
2022/04/18 05:27:15;;;;;;;7.45;5.85;;;11.00;61.40;;;;;;5015352;28;20037;-78
2022/04/18 05:29:42;;;;;;;8.00;5.95;;;11.00;61.40;;;;;;5017896;28;20389;-78
2022/04/18 05:32:09;;;;;;;7.53;5.80;;;11.00;61.50;;;;;;4997925;28;20029;-78
2022/04/18 05:34:41;;;;;;;7.45;5.97;;;11.00;61.50;;;;;;5014787;28;20035;-79
2022/04/18 05:37:17;;;;;;;7.78;5.47;;;10.90;61.50;;;;;;5014563;28;20037;-79
2022/04/18 05:39:59;;;;;;;7.07;5.47;;;10.90;61.50;;;;;;5028504;28;20013;-78
2022/04/18 05:42:26;;;;;;;8.10;6.00;;;10.90;61.60;;;;;;4995980;28;20034;-79
2022/04/18 05:44:57;;;;;;;8.85;6.03;;;10.90;61.60;;;;;;5013207;28;20381;-78
2022/04/18 05:47:24;;;;;;;8.00;5.47;;;10.90;61.70;;;;;;5022771;28;20041;-77
2022/04/18 05:49:50;;;;;;;7.32;5.63;;;10.90;61.70;;;;;;5005810;28;20034;-79
2022/04/18 05:52:16;;;;;;;6.85;5.47;;;10.90;61.70;;;;;;5054441;28;20047;-80
2022/04/18 05:54:45;;;;;;;7.40;5.68;;;10.90;61.80;;;;;;4997030;28;20030;-80
2022/04/18 05:57:11;;;;;;;8.82;6.45;;;10.80;61.70;;;;;;5031274;28;20034;-79
2022/04/18 05:59:49;;;;;;;6.78;5.72;;;10.80;61.80;;;;;;5029795;28;20021;-80
2022/04/18 06:02:18;;;;;;;7.57;5.85;;;10.80;61.80;;;;;;5018092;28;20497;-80
2022/04/18 06:04:55;;;;;;;6.88;5.50;;;10.80;61.80;;;;;;5013511;28;20084;-79
2022/04/18 06:07:21;;;;;;;7.97;5.90;;;10.80;61.90;;;;;;5030011;28;20037;-79
2022/04/18 06:09:56;;;;;;;7.55;6.07;;;10.80;61.90;;;;;;5029687;28;20359;-80
2022/04/18 06:12:22;;;;;;;7.68;5.60;;;10.70;61.90;;;;;;5029593;28;20096;-80
2022/04/18 06:14:50;;;;;;;6.78;5.60;;;10.70;61.90;;;;;;5010648;28;20504;-78
2022/04/18 06:17:16;;;;;;;7.68;5.68;;;10.80;62.00;;;;;;5036827;28;20049;-78
2022/04/18 06:19:42;;;;;;;7.88;5.38;;;10.70;62.00;;;;;;5037213;28;20036;-77
2022/04/18 06:22:08;;;;;;;6.43;5.13;;;10.70;62.00;;;;;;5056088;28;20116;-77
2022/04/18 06:24:34;;;;;;;7.22;5.28;;;10.70;62.00;;;;;;5044731;28;20120;-77
2022/04/18 06:27:10;;;;;;;7.45;5.13;;;10.70;62.10;;;;;;5051793;28;20064;-78
2022/04/18 06:29:37;;;;;;;8.57;5.93;;;10.70;62.00;;;;;;5038237;28;20032;-79
2022/04/18 06:32:05;;;;;;;7.28;5.45;;;10.70;62.10;;;;;;5036903;28;20060;-80
2022/04/18 06:34:31;;;;;;;6.50;5.40;;;10.70;62.10;;;;;;5074291;28;20115;-80
2022/04/18 06:37:07;;;;;;;;;;;10.70;62.20;;;;;;5082609;28;20114;-79
2022/04/18 06:39:59;;;;;;;7.18;5.07;;;10.70;62.10;;;;;;5050799;28;19953;-79
2022/04/18 06:42:35;;;;;;;6.68;4.93;;;10.70;62.10;;;;;;5051684;28;20131;-80
2022/04/18 06:45:03;;;;;;;6.05;4.88;;;10.70;62.20;;;;;;5063879;28;20040;-80
2022/04/18 06:47:30;;;;;;;6.13;4.97;;;10.70;62.30;;;;;;5035218;28;20028;-78
2022/04/18 06:49:56;;;;;;;7.00;5.07;;;10.70;62.30;;;;;;5045226;28;20035;-79
2022/04/18 06:53:00;;;;;;;6.05;4.47;;;10.70;62.30;;;;;;5050792;28;20040;-79
2022/04/18 06:58:56;;;;;;;5.75;4.55;;;10.70;62.30;;;;;;5044582;28;20373;-77
2022/04/18 07:01:24;;;;;;;6.40;4.57;;;10.70;62.30;;;;;;5052448;28;20048;-78
2022/04/18 07:03:49;;;;;;;6.45;4.70;;;10.70;62.40;;;;;;5038046;28;20032;-78
2022/04/18 07:06:15;;;;;;;6.18;4.55;;;10.70;62.40;;;;;;5039260;28;20028;-79
2022/04/18 07:08:41;;;;;;;6.63;4.97;;;10.70;62.40;;;;;;5022058;28;20017;-78
2022/04/18 07:11:41;;;;;;;6.32;4.75;;;10.80;62.40;;;;;;5035962;28;20025;-77
2022/04/18 07:14:07;;;;;;;6.13;4.43;;;10.80;62.40;;;;;;5072867;28;20134;-78
2022/04/18 07:16:32;;;;;;;6.03;4.57;;;10.80;62.40;;;;;;5018451;28;20497;-78
2022/04/18 07:18:59;;;;;;;6.18;4.60;;;10.80;62.40;;;;;;5014326;28;20026;-77
2022/04/18 07:21:26;;;;;;;5.53;4.22;;;10.80;62.40;;;;;;5014972;28;20029;-77
2022/04/18 07:23:52;;;;;;;5.72;4.00;;;10.80;62.40;;;;;;4997454;28;20036;-77
2022/04/18 07:26:23;;;;;;;5.38;4.13;;;10.80;62.40;;;;;;5035927;28;20116;-78
2022/04/18 07:28:49;;;;;;;5.55;4.15;;;10.80;62.40;;;;;;5046116;28;20034;-77
2022/04/18 07:31:16;;;;;;;5.47;4.22;;;10.80;62.40;;;;;;5046963;28;20095;-78
2022/04/18 07:33:42;;;;;;;5.22;4.07;;;10.80;62.40;;;;;;5028266;28;20064;-77
2022/04/18 07:36:13;;;;;;;4.60;3.55;;;10.90;62.40;;;;;;5016203;28;20116;-78
2022/04/18 07:38:51;;;;;;;5.45;4.13;;;10.90;62.40;;;;;;5013796;28;20037;-76
2022/04/18 07:41:29;;;;;;;5.30;3.80;;;10.90;62.40;;;;;;5029314;28;20033;-77
2022/04/18 07:43:58;;;;;;;4.80;3.40;;;10.90;62.30;;;;;;5033728;28;20038;-76
2022/04/18 07:46:26;;;;;;;6.03;3.83;;;11.00;62.40;;;;;;5015454;28;20025;-77
2022/04/18 07:48:52;;;;;;;4.90;3.35;;;11.00;62.40;;;;;;5048144;28;20029;-78
2022/04/18 07:51:32;;;;;;;4.82;3.38;;;11.00;62.40;;;;;;5014812;28;20087;-80
2022/04/18 07:53:59;;;;;;;5.28;3.67;;;11.00;62.40;;;;;;5029586;28;20064;-76
2022/04/18 07:56:26;;;;;;;4.38;3.25;;;11.00;62.30;;;;;;4993907;28;20034;-79
2022/04/18 07:58:53;;;;;;;5.00;3.20;;;11.10;62.40;;;;;;5015422;28;20040;-77
2022/04/18 08:01:27;;;;;;;;;;;11.10;62.40;;;;;;5007262;28;20029;-79
2022/04/18 08:03:54;;;;;;;4.05;2.92;;;11.10;62.40;;;;;;5013935;28;19936;-78
2022/04/18 08:06:21;;;;;;;3.50;2.33;;;11.10;62.30;;;;;;5048138;28;20020;-78
2022/04/18 08:08:59;;;;;;;3.17;2.47;;;11.10;62.40;;;;;;5000696;28;20075;-78
2022/04/18 08:11:25;;;;;;;4.13;2.97;;;11.10;62.40;;;;;;4993497;28;20116;-81
2022/04/18 08:13:52;;;;;;;4.05;2.90;;;11.10;62.40;;;;;;5013719;28;20037;-79
2022/04/18 08:16:23;;;;;;;3.85;2.88;;;11.20;63.10;;;;;;5058274;28;20139;-79
2022/04/18 08:18:57;;;;;;;6.40;3.22;;;11.20;62.40;;;;;;5071253;28;20126;-80
2022/04/18 08:21:25;;;;;;;3.42;2.67;;;11.30;62.50;;;;;;5038605;28;20131;-80
2022/04/18 08:23:51;;;;;;;3.40;2.50;;;11.30;62.50;;;;;;5030926;28;20123;-79
2022/04/18 08:26:35;;;;;;;3.17;2.65;;;11.40;62.50;;;;;;5066455;28;20039;-79
2022/04/18 08:29:27;;;;;;;4.40;2.80;;;11.40;62.40;;;;;;5040935;28;20033;-81
2022/04/18 08:32:16;;;;;;;3.05;2.30;;;11.40;62.30;;;;;;5040909;28;20434;-80
2022/04/18 08:34:42;;;;;;;3.03;2.25;;;11.50;62.40;;;;;;5028499;28;20035;-79
2022/04/18 08:37:13;;;;;;;3.53;2.47;;;11.60;62.50;;;;;;5037904;28;20025;-79
2022/04/18 08:40:10;;;;;;;3.15;2.45;;;11.60;62.40;;;;;;5035853;28;20448;-80
2022/04/18 08:42:41;;;;;;;3.97;2.50;;;11.70;62.40;;;;;;5080334;28;20039;-79
2022/04/18 08:45:10;;;;;;;3.13;2.33;;;11.80;62.40;;;;;;5060036;28;20035;-79
2022/04/18 08:53:11;;;;;;;3.53;2.47;;;12.00;62.40;;;;;;5040415;28;20044;-81
2022/04/18 08:55:38;;;;;;;3.50;2.33;;;12.10;62.40;;;;;;5050477;28;20085;-76
2022/04/18 08:58:22;;;;;;;3.17;2.20;;;12.20;62.50;;;;;;5043824;28;20417;-78
2022/04/18 09:00:49;;;;;;;3.20;2.40;;;12.30;62.50;;;;;;5037333;28;20028;-76
2022/04/18 09:03:36;;;;;;;2.85;2.13;;;12.40;62.60;;;;;;5042554;28;20043;-77
2022/04/18 09:06:10;;;;;;;2.95;2.33;;;12.50;62.60;;;;;;5033411;28;20044;-76
2022/04/18 09:08:54;;;;;;;2.90;2.22;;;12.60;62.60;;;;;;5067978;28;20052;-77
2022/04/18 09:11:40;;;;;;;2.95;2.28;;;12.70;62.70;;;;;;5063102;28;20128;-77
2022/04/18 09:14:11;;;;;;;2.90;2.20;;;12.80;62.60;;;;;;5045271;28;20047;-76
2022/04/18 09:16:39;;;;;;;2.72;2.08;;;12.90;62.60;;;;;;5048268;28;20053;-77
2022/04/18 09:19:12;;;;;;;2.95;2.22;;;13.00;62.60;;;;;;5082701;28;20035;-77
2022/04/18 09:21:42;;;;;;;2.63;1.90;;;13.20;62.60;;;;;;5049459;28;20067;-78
2022/04/18 09:24:32;;;;;;;2.88;1.88;;;13.30;62.60;;;;;;5047948;28;20547;-78
2022/04/18 09:27:13;;;;;;;2.72;1.92;;;13.40;62.90;;;;;;5047440;28;20020;-77
2022/04/18 09:29:40;;;;;;;3.05;2.10;;;13.50;62.60;;;;;;5054804;28;20067;-78
2022/04/18 09:32:12;;;;;;;2.85;2.13;;;13.70;62.60;;;;;;5034249;28;20559;-78
2022/04/18 09:35:05;;;;;;;2.70;2.03;;;13.80;62.70;;;;;;5048140;28;20028;-78
2022/04/18 09:37:36;;;;;;;2.83;2.05;;;13.90;62.70;;;;;;5059857;28;20024;-78
2022/04/18 09:40:02;;;;;;;2.55;2.00;;;14.00;62.70;;;;;;5034520;28;20028;-77
2022/04/18 09:42:29;;;;;;;2.63;2.17;;;14.10;62.80;;;;;;5034510;28;20041;-77
2022/04/18 09:45:08;;;;;;;2.30;1.85;;;14.30;62.90;;;;;;5017307;28;20052;-78
2022/04/18 09:47:36;;;;;;;2.72;2.10;;;14.40;62.80;;;;;;5035637;28;20036;-77
2022/04/18 09:53:26;;;;;;;2.33;1.88;;;14.60;62.90;;;;;;5035404;28;20145;-79
2022/04/18 09:55:54;;;;;;;3.17;2.30;;;14.80;62.70;;;;;;5053984;28;20098;-77
2022/04/18 09:58:21;;;;;;;2.72;2.00;;;14.90;62.70;;;;;;5052273;28;20028;-78
2022/04/18 10:00:50;;;;;;;2.15;1.80;;;15.10;62.80;;;;;;5066213;28;20029;-77
2022/04/18 10:03:17;;;;;;;2.33;1.90;;;15.20;62.90;;;;;;5051924;28;20028;-79
2022/04/18 10:05:43;;;;;;;2.88;2.35;;;15.30;62.90;;;;;;5068339;28;20036;-77
2022/04/18 10:08:09;;;;;;;2.22;1.95;;;15.50;62.90;;;;;;5051369;28;20028;-78
2022/04/18 10:10:37;;;;;;;2.60;2.10;;;15.50;62.80;;;;;;5035036;28;20020;-76
2022/04/18 10:13:03;;;;;;;2.92;2.05;;;15.70;62.80;;;;;;5051397;28;20102;-78
2022/04/18 10:15:30;;;;;;;2.85;2.00;;;15.80;62.80;;;;;;5051180;28;20106;-76
2022/04/18 10:17:56;;;;;;;2.78;2.03;;;15.90;62.80;;;;;;5068355;28;20487;-77
2022/04/18 10:21:00;;;;;;;2.47;1.90;;;16.10;62.90;;;;;;5051552;28;20039;-78
2022/04/18 10:23:47;;;;;;;2.33;1.90;;;16.20;63.00;;;;;;5044459;28;20052;-77
2022/04/18 10:26:51;;;;;;;2.40;2.08;;;16.40;62.90;;;;;;5023774;28;20526;-78
2022/04/18 10:29:31;;;;;;;2.03;1.77;;;16.50;62.80;;;;;;5068198;28;20046;-78
2022/04/18 10:32:02;;;;;;;1.58;1.48;;;16.60;62.60;;;;;;5051006;28;20029;-77
2022/04/18 10:34:31;;;;;;;2.67;1.88;;;16.70;62.70;;;;;;5060763;28;20032;-78
2022/04/18 10:37:00;;;;;;;2.00;1.80;;;16.90;62.90;;;;;;5071157;28;20111;-78
2022/04/18 10:39:33;;;;;;;2.17;1.60;;;17.00;63.00;;;;;;5055163;28;20037;-81
2022/04/18 10:42:21;;;;;;;2.40;2.00;;;17.20;63.20;;;;;;5052932;28;20023;-79
2022/04/18 10:45:12;;;;;;;2.42;1.80;;;17.30;63.20;;;;;;5064082;28;20024;-79
2022/04/18 10:47:56;;;;;;;2.03;1.77;;;17.40;63.00;;;;;;5038729;28;20097;-80
2022/04/18 10:50:27;;;;;;;2.47;1.77;;;17.50;63.00;;;;;;5054946;28;20516;-79
2022/04/18 10:53:12;;;;;;;3.25;1.75;;;17.70;63.00;;;;;;5070496;28;20074;-79
2022/04/18 10:55:40;;;;;;;2.35;1.85;;;17.80;63.30;;;;;;5071951;28;20059;-79
2022/04/18 10:58:15;;;;;;;2.15;1.80;;;18.00;63.30;;;;;;5039692;28;20445;-80
2022/04/18 11:00:50;;;;;;;;;;;18.10;63.50;;;;;;5073090;28;20107;-79
2022/04/18 11:03:34;;;;;;;2.13;1.70;;;18.20;63.20;;;;;;5046114;28;19912;-78
2022/04/18 11:06:21;;;;;;;2.13;1.70;;;18.30;63.20;;;;;;5050637;28;20028;-78
2022/04/18 11:09:06;;;;;;;2.17;1.55;;;18.40;63.20;;;;;;5037970;28;20037;-79
2022/04/18 11:11:49;;;;;;;2.30;1.80;;;18.50;63.20;;;;;;5055248;28;20469;-78
2022/04/18 11:14:25;;;;;;;1.70;1.60;;;18.60;63.10;;;;;;5046076;28;20039;-78
2022/04/18 11:16:52;;;;;;;2.28;1.67;;;18.80;63.10;;;;;;5068648;28;20050;-77
2022/04/18 11:19:22;;;;;;;1.83;1.63;;;18.80;63.00;;;;;;5038447;28;20569;-77
2022/04/18 11:21:57;;;;;;;2.25;1.75;;;19.00;63.00;;;;;;5072490;28;20020;-77
2022/04/18 11:24:39;;;;;;;;;;;19.10;62.90;;;;;;5047672;28;20759;-78
2022/04/18 11:27:06;;;;;;;1.85;1.40;;;19.10;62.70;;;;;;5054335;28;19919;-78
2022/04/18 11:29:32;;;;;;;1.65;1.50;;;19.20;62.50;;;;;;5054767;28;20020;-79
2022/04/18 11:31:58;;;;;;;1.60;1.50;;;19.30;62.40;;;;;;5054108;28;20086;-78
2022/04/18 11:34:26;;;;;;;2.35;1.40;;;19.40;62.50;;;;;;5045675;28;20084;-78
2022/04/18 11:37:04;;;;;;;2.17;1.50;;;19.40;62.40;;;;;;5035422;28;20024;-78
2022/04/18 11:39:48;;;;;;;1.98;1.50;;;19.60;62.40;;;;;;5054142;28;20046;-79
2022/04/18 11:42:21;;;;;;;2.33;1.65;;;19.70;62.30;;;;;;5054241;28;20028;-78
2022/04/18 11:44:49;;;;;;;2.13;1.73;;;19.70;62.10;;;;;;5046770;28;20025;-78
2022/04/18 11:47:38;;;;;;;1.67;1.38;;;19.80;62.20;;;;;;5051893;28;20032;-78
2022/04/18 11:50:05;;;;;;;1.80;1.42;;;19.80;62.30;;;;;;5048276;28;20062;-76
2022/04/18 11:52:36;;;;;;;1.65;1.45;;;20.00;62.20;;;;;;5054179;28;20032;-78
2022/04/18 11:55:18;;;;;;;1.60;1.48;;;20.00;62.10;;;;;;5054136;28;20024;-77
2022/04/18 11:57:48;;;;;;;2.08;1.60;;;20.10;62.30;;;;;;5053335;28;20033;-78
2022/04/18 12:00:15;;;;;;;1.95;1.65;;;20.10;62.40;;;;;;5051836;28;20025;-78
2022/04/18 12:08:18;;;;;;;2.35;1.75;;;20.40;62.90;;;;;;5044482;28;20119;-78
2022/04/18 12:10:45;;;;;;;1.75;1.55;;;20.50;63.20;;;;;;5072252;28;20445;-78
2022/04/18 12:13:14;;;;;;;2.33;1.70;;;20.50;63.30;;;;;;5053877;28;20044;-77
2022/04/18 12:15:42;;;;;;;2.92;1.80;;;20.60;63.50;;;;;;5053374;28;20132;-78
2022/04/18 12:18:11;;;;;;;1.90;1.50;;;20.60;63.50;;;;;;5053539;28;20098;-77
2022/04/18 12:20:41;;;;;;;2.85;1.80;;;20.70;63.40;;;;;;5053735;28;20448;-77
2022/04/18 12:23:09;;;;;;;2.33;1.77;;;20.70;63.40;;;;;;5035512;28;20525;-78
2022/04/18 12:25:35;;;;;;;1.60;1.50;;;20.80;63.40;;;;;;5053155;28;20074;-79
2022/04/18 12:28:05;;;;;;;2.08;1.67;;;20.90;63.40;;;;;;5018259;28;20029;-79
2022/04/18 12:30:31;;;;;;;1.95;1.60;;;20.90;63.30;;;;;;5045223;28;20028;-78
2022/04/18 12:33:10;;;;;;;2.67;1.73;;;21.00;63.30;;;;;;5037093;28;20040;-77
2022/04/18 12:35:46;;;;;;;1.73;1.60;;;21.00;63.30;;;;;;5063187;28;20039;-78
2022/04/18 12:38:13;;;;;;;2.20;1.80;;;21.10;63.20;;;;;;5033479;28;20029;-80
2022/04/18 12:40:44;;;;;;;2.33;1.75;;;21.10;63.10;;;;;;5036282;28;20045;-79
2022/04/18 12:43:16;;;;;;;2.40;1.90;;;21.10;63.10;;;;;;5071083;28;20028;-79
2022/04/18 12:45:49;;;;;;;1.90;1.67;;;21.20;63.00;;;;;;5044662;28;20024;-79
2022/04/18 12:48:24;;;;;;;2.17;1.77;;;21.20;62.90;;;;;;5070488;28;20539;-79
2022/04/18 12:50:50;;;;;;;;;;;21.30;62.80;;;;;;5080681;28;20029;-78
2022/04/18 12:53:16;;;;;;;1.50;1.30;;;21.30;62.80;;;;;;5035841;28;19955;-77
2022/04/18 12:55:42;;;;;;;2.10;1.63;;;21.30;62.50;;;;;;5036076;28;20064;-79
2022/04/18 12:58:39;;;;;;;1.63;1.40;;;21.40;62.70;;;;;;5051975;28;20025;-79
2022/04/18 13:01:05;;;;;;;2.22;1.48;;;21.40;62.90;;;;;;5043980;28;20071;-78
2022/04/18 13:03:43;;;;;;;1.70;1.60;;;21.50;62.40;;;;;;5052923;28;20535;-79
2022/04/18 13:06:10;;;;;;;2.42;1.75;;;21.50;62.20;;;;;;5053104;28;20394;-79
2022/04/18 13:08:40;;;;;;;2.63;1.70;;;21.60;62.30;;;;;;5053260;28;20024;-79
2022/04/18 13:11:07;;;;;;;2.00;1.52;;;21.60;62.30;;;;;;5047659;28;20317;-77
2022/04/18 13:13:33;;;;;;;1.63;1.42;;;21.60;62.30;;;;;;5039826;28;20048;-79
2022/04/18 13:16:23;;;;;;;1.80;1.70;;;21.70;62.30;;;;;;5035600;28;20063;-78
2022/04/18 13:19:00;;;;;;;2.00;1.50;;;21.70;62.30;;;;;;5070335;28;20070;-78
2022/04/18 13:21:28;;;;;;;2.03;1.55;;;21.80;62.10;;;;;;5042823;28;20029;-78
2022/04/18 13:23:58;;;;;;;1.98;1.63;;;21.80;62.10;;;;;;5052383;28;20028;-78
2022/04/18 13:26:26;;;;;;;2.47;1.90;;;21.80;62.00;;;;;;5052830;28;20115;-78
2022/04/18 13:28:52;;;;;;;2.20;1.65;;;21.90;61.90;;;;;;5052021;28;20023;-78
2022/04/18 13:31:17;;;;;;;2.13;1.77;;;21.90;62.00;;;;;;5051286;28;20400;-78
2022/04/18 13:33:44;;;;;;;1.63;1.50;;;21.90;61.90;;;;;;5042999;28;20036;-79
2022/04/18 13:38:55;;;;;;;2.15;1.70;;;22.00;62.00;;;;;;5043758;28;20047;-78
2022/04/18 13:41:20;;;;;;;1.80;1.30;;;22.00;62.10;;;;;;5053055;28;20440;-78
2022/04/18 13:43:46;;;;;;;1.60;1.40;;;22.00;62.10;;;;;;5044373;28;20449;-80